Time;durP1;ratioP1;P1;durP2;ratioP2;P2;SDS_P1;SDS_P2;PMS_P1;PMS_P2;Temp;Humidity;BMP_temperature;BMP_pressure;BME280_temperature;BME280_humidity;BME280_pressure;Samples;Min_cycle;Max_cycle;Signal;HPM_P1;HPM_P2
2022/03/29 00:01:22;;;;;;;;;;;7.60;99.90;;;;;;5091681;28;19974;-76
2022/03/29 00:03:48;;;;;;;;;;;7.60;99.90;;;;;;5092099;28;20283;-76
2022/03/29 00:06:13;;;;;;;;;;;7.60;99.90;;;;;;5109922;28;20397;-77
2022/03/29 00:08:39;;;;;;;;;;;7.60;99.90;;;;;;5110100;28;19972;-76
2022/03/29 00:11:04;;;;;;;;;;;7.60;99.90;;;;;;5110324;28;20260;-76
2022/03/29 00:13:30;;;;;;;;;;;7.60;99.90;;;;;;5092204;28;19988;-76
2022/03/29 00:15:55;;;;;;;;;;;7.60;99.90;;;;;;5091332;28;19920;-77
2022/03/29 00:18:21;;;;;;;;;;;7.60;99.90;;;;;;5091470;28;19934;-76
2022/03/29 00:20:46;;;;;;;;;;;7.60;99.90;;;;;;5091925;28;19983;-76
2022/03/29 00:23:12;;;;;;;;;;;7.60;99.90;;;;;;5109814;28;20313;-76
2022/03/29 00:25:37;;;;;;;;;;;7.50;99.90;;;;;;5091584;28;19958;-76
2022/03/29 00:28:03;;;;;;;;;;;7.50;99.90;;;;;;5091486;28;19966;-76
2022/03/29 00:30:29;;;;;;;;;;;7.50;99.90;;;;;;5109990;28;19924;-76
2022/03/29 00:32:55;;;;;;;;;;;7.50;99.90;;;;;;5091620;28;19920;-76
2022/03/29 00:35:21;;;;;;;;;;;7.50;99.90;;;;;;5091619;28;19927;-76
2022/03/29 00:37:48;;;;;;;;;;;7.50;99.90;;;;;;5095259;28;19919;-76
2022/03/29 00:40:13;;;;;;;;;;;7.50;99.90;;;;;;5111971;28;19924;-77
2022/03/29 00:42:39;;;;;;;;;;;7.40;99.90;;;;;;5111291;28;19930;-76
2022/03/29 00:45:05;;;;;;;;;;;7.40;99.90;;;;;;5112018;28;20288;-76
2022/03/29 00:47:31;;;;;;;;;;;7.40;99.90;;;;;;5130130;28;19923;-76
2022/03/29 00:49:57;;;;;;;;;;;7.40;99.90;;;;;;5111145;28;20313;-76
2022/03/29 00:52:22;;;;;;;;;;;7.40;99.90;;;;;;5129254;28;19923;-76
2022/03/29 00:54:48;;;;;;;;;;;7.40;99.90;;;;;;5132085;27;20335;-76
2022/03/29 00:57:14;;;;;;;;;;;7.40;99.90;;;;;;5134527;27;20338;-76
2022/03/29 00:59:41;;;;;;;;;;;7.50;99.90;;;;;;5116133;27;19926;-76
2022/03/29 01:02:07;;;;;;;;;;;7.40;99.90;;;;;;5133711;27;20031;-76
2022/03/29 01:04:33;;;;;;;;;;;7.50;99.90;;;;;;5116057;27;20327;-76
2022/03/29 01:06:58;;;;;;;;;;;7.50;99.90;;;;;;5134542;27;20343;-76
2022/03/29 01:09:25;;;;;;;;;;;7.40;99.90;;;;;;5115281;27;19929;-76
2022/03/29 01:11:51;;;;;;;;;;;7.40;99.90;;;;;;5115352;27;19929;-76
2022/03/29 01:14:16;;;;;;;;;;;7.40;99.90;;;;;;5134144;27;19919;-76
2022/03/29 01:19:26;;;;;;;;;;;7.40;99.90;;;;;;5133815;27;19923;-76
2022/03/29 01:22:02;;;;;;;;;;;7.40;99.90;;;;;;5115500;27;19919;-76
2022/03/29 01:24:28;;;;;;;;;;;7.40;99.90;;;;;;5133103;27;19926;-76
2022/03/29 01:26:58;;;;;;;;;;;7.40;99.90;;;;;;5132414;27;19923;-76
2022/03/29 01:29:24;;;;;;;;;;;7.40;99.90;;;;;;5133700;27;20500;-76
2022/03/29 01:31:50;;;;;;;;;;;7.30;99.90;;;;;;5115476;27;20056;-76
2022/03/29 01:34:19;;;;;;;;;;;7.30;99.90;;;;;;5133008;27;19923;-76
2022/03/29 01:36:45;;;;;;;;;;;7.30;99.90;;;;;;5133605;27;19974;-76
2022/03/29 01:39:10;;;;;;;;;;;7.30;99.90;;;;;;5114786;27;19992;-76
2022/03/29 01:41:38;;;;;;;;;;;7.30;99.90;;;;;;5132139;27;20604;-76
2022/03/29 01:44:07;;;;;;;;;;;7.20;99.90;;;;;;5132832;27;19942;-76
2022/03/29 01:46:32;;;;;;;;;;;7.20;99.90;;;;;;5115107;27;20266;-76
2022/03/29 01:48:59;;;;;;;;;;;7.30;99.90;;;;;;5133464;27;19980;-76
2022/03/29 01:51:24;;;;;;;;;;;7.30;99.90;;;;;;5132927;27;20374;-76
2022/03/29 01:53:54;;;;;;;;;;;7.30;99.90;;;;;;5115080;27;19919;-76
2022/03/29 01:56:20;;;;;;;;;;;7.30;99.90;;;;;;5114846;27;19923;-76
2022/03/29 01:58:45;;;;;;;;;;;7.30;99.90;;;;;;5132859;27;19953;-76
2022/03/29 02:01:11;;;;;;;;;;;7.30;99.90;;;;;;5114646;27;20304;-76
2022/03/29 02:03:36;;;;;;;;;;;7.30;99.90;;;;;;5097109;27;19958;-76
2022/03/29 02:06:02;;;;;;;;;;;7.30;99.90;;;;;;5113257;27;20359;-76
2022/03/29 02:08:27;;;;;;;;;;;7.30;99.90;;;;;;5114184;27;19923;-76
2022/03/29 02:10:53;;;;;;;;;;;7.30;99.90;;;;;;5114168;27;20308;-76
2022/03/29 02:13:19;;;;;;;;;;;7.30;99.90;;;;;;5132665;27;19974;-76
2022/03/29 02:15:45;;;;;;;;;;;7.30;99.90;;;;;;5096963;27;19920;-76
2022/03/29 02:18:10;;;;;;;;;;;7.30;99.90;;;;;;5132737;27;19964;-76
2022/03/29 02:20:36;;;;;;;;;;;7.30;99.90;;;;;;5115840;27;19928;-76
2022/03/29 02:23:08;;;;;;;;;;;7.30;99.90;;;;;;5093704;28;20464;-76
2022/03/29 02:25:35;;;;;;;;;;;7.30;99.90;;;;;;5111496;28;19923;-76
2022/03/29 02:28:01;;;;;;;;;;;7.30;99.90;;;;;;5093686;28;20006;-76
2022/03/29 02:30:26;;;;;;;;;;;7.30;99.90;;;;;;5093704;28;20323;-76
2022/03/29 02:32:52;;;;;;;;;;;7.30;99.90;;;;;;5076721;28;19923;-76
2022/03/29 02:35:18;;;;;;;;;;;7.30;99.90;;;;;;5092732;28;19927;-76
2022/03/29 02:37:43;;;;;;;;;;;7.30;99.90;;;;;;5093561;28;20396;-77
2022/03/29 02:40:09;;;;;;;;;;;7.30;99.90;;;;;;5110560;28;19934;-77
2022/03/29 02:42:42;;;;;;;;;;;7.30;99.90;;;;;;5093060;28;20022;-76
2022/03/29 02:45:09;;;;;;;;;;;7.30;99.90;;;;;;5093138;28;19919;-76
2022/03/29 02:47:35;;;;;;;;;;;7.30;99.90;;;;;;5093612;28;19943;-76
2022/03/29 02:50:00;;;;;;;;;;;7.20;99.90;;;;;;5092662;28;19920;-76
2022/03/29 02:52:26;;;;;;;;;;;7.30;99.90;;;;;;5109759;28;20014;-76
2022/03/29 02:54:51;;;;;;;;;;;7.20;99.90;;;;;;5093129;28;20297;-78
2022/03/29 02:57:17;;;;;;;;;;;7.20;99.90;;;;;;5093018;28;19919;-77
2022/03/29 02:59:45;;;;;;;;;;;7.20;99.90;;;;;;5093051;28;19920;-77
2022/03/29 03:02:11;;;;;;;;;;;7.20;99.90;;;;;;5110636;28;19947;-77
2022/03/29 03:04:37;;;;;;;;;;;7.20;99.90;;;;;;5093151;28;19927;-77
2022/03/29 03:07:02;;;;;;;;;;;7.20;99.90;;;;;;5111302;28;20475;-77
2022/03/29 03:09:28;;;;;;;;;;;7.20;99.90;;;;;;5109330;28;19920;-78
2022/03/29 03:11:53;;;;;;;;;;;7.30;99.90;;;;;;5092745;28;19920;-77
2022/03/29 03:14:19;;;;;;;;;;;7.30;99.90;;;;;;5092905;28;19919;-77
2022/03/29 03:16:44;;;;;;;;;;;7.30;99.90;;;;;;5092407;28;20358;-77
2022/03/29 03:19:10;;;;;;;;;;;7.30;99.90;;;;;;5092087;27;19927;-78
2022/03/29 03:21:35;;;;;;;;;;;7.30;99.90;;;;;;5117448;27;19919;-78
2022/03/29 03:24:01;;;;;;;;;;;7.30;99.90;;;;;;5112661;27;19942;-78
2022/03/29 03:26:26;;;;;;;;;;;7.30;99.90;;;;;;5095322;27;19923;-78
2022/03/29 03:28:52;;;;;;;;;;;7.30;99.90;;;;;;5101804;28;20262;-78
2022/03/29 03:31:17;;;;;;;;;;;7.30;99.90;;;;;;5109774;28;20331;-78
2022/03/29 03:33:43;;;;;;;;;;;7.30;99.90;;;;;;5091911;28;19920;-78
2022/03/29 03:36:08;;;;;;;;;;;7.30;99.90;;;;;;5109839;28;19923;-77
2022/03/29 03:38:34;;;;;;;;;;;7.30;99.90;;;;;;5128909;27;19927;-77
2022/03/29 03:40:59;;;;;;;;;;;7.30;99.90;;;;;;5130456;27;19919;-77
2022/03/29 03:43:25;;;;;;;;;;;7.30;99.90;;;;;;5130197;27;20041;-78
2022/03/29 03:45:50;;;;;;;;;;;7.30;99.90;;;;;;5130174;27;20278;-77
2022/03/29 03:48:16;;;;;;;;;;;7.30;99.90;;;;;;5111306;27;20285;-77
2022/03/29 03:50:41;;;;;;;;;;;7.30;99.90;;;;;;5130357;27;19919;-78
2022/03/29 03:53:07;;;;;;;;;;;7.20;99.90;;;;;;5111438;27;20517;-78
2022/03/29 03:55:32;;;;;;;;;;;7.30;99.90;;;;;;5092963;28;19998;-77
2022/03/29 03:57:58;;;;;;;;;;;7.20;99.90;;;;;;5109460;28;20248;-77
2022/03/29 04:00:24;;;;;;;;;;;7.20;99.90;;;;;;5090552;28;19920;-77
2022/03/29 04:02:50;;;;;;;;;;;7.20;99.90;;;;;;5091173;28;19973;-78
2022/03/29 04:05:16;;;;;;;;;;;7.20;99.90;;;;;;5091336;28;19923;-77
2022/03/29 04:07:42;;;;;;;;;;;7.20;99.90;;;;;;5109503;28;19919;-77
2022/03/29 04:10:08;;;;;;;;;;;7.20;99.90;;;;;;5108651;28;19919;-77
2022/03/29 04:12:33;;;;;;;;;;;7.20;99.90;;;;;;5091281;28;20018;-78
2022/03/29 04:14:59;;;;;;;;;;;7.10;99.90;;;;;;5091032;28;19924;-78
2022/03/29 04:17:24;;;;;;;;;;;7.10;99.90;;;;;;5109078;28;19923;-77
2022/03/29 04:19:50;;;;;;;;;;;7.10;99.90;;;;;;5109083;28;20289;-77
2022/03/29 04:22:18;;;;;;;;;;;7.10;99.90;;;;;;5090931;28;20309;-78
2022/03/29 04:24:46;;;;;;;;;;;7.10;99.90;;;;;;5109188;28;20410;-77
2022/03/29 04:27:12;;;;;;;;;;;7.10;99.90;;;;;;5109206;28;19919;-77
2022/03/29 04:29:37;;;;;;;;;;;7.10;99.90;;;;;;5110527;27;20515;-78
2022/03/29 04:32:03;;;;;;;;;;;7.10;99.90;;;;;;5115642;27;19942;-78
2022/03/29 04:34:29;;;;;;;;;;;7.10;99.90;;;;;;5115363;27;19919;-78
2022/03/29 04:36:55;;;;;;;;;;;7.10;99.90;;;;;;5115775;27;19923;-78
2022/03/29 04:39:20;;;;;;;;;;;7.10;99.90;;;;;;5115586;27;20001;-78
2022/03/29 04:41:46;;;;;;;;;;;7.10;99.90;;;;;;5133737;27;19920;-78
2022/03/29 04:44:11;;;;;;;;;;;7.10;99.90;;;;;;5114427;27;19923;-78
2022/03/29 04:46:37;;;;;;;;;;;7.10;99.90;;;;;;5115709;27;19919;-77
2022/03/29 04:49:02;;;;;;;;;;;7.10;99.90;;;;;;5133204;27;19919;-78
2022/03/29 04:51:28;;;;;;;;;;;7.10;99.90;;;;;;5133566;27;19919;-78
2022/03/29 04:53:53;;;;;;;;;;;7.10;99.90;;;;;;5115176;27;19925;-77
2022/03/29 04:56:19;;;;;;;;;;;7.10;99.90;;;;;;5114848;27;20009;-77
2022/03/29 04:58:44;;;;;;;;;;;7.10;99.90;;;;;;5115370;27;19919;-77
2022/03/29 05:01:10;;;;;;;;;;;7.10;99.90;;;;;;5115008;27;19923;-78
2022/03/29 05:03:35;;;;;;;;;;;7.10;99.90;;;;;;5133491;27;19944;-78
2022/03/29 05:06:01;;;;;;;;;;;7.10;99.90;;;;;;5133260;27;20496;-78
2022/03/29 05:08:26;;;;;;;;;;;7.10;99.90;;;;;;5114467;27;19919;-78
2022/03/29 05:10:52;;;;;;;;;;;7.20;99.90;;;;;;5115269;27;19964;-78
2022/03/29 05:13:17;;;;;;;;;;;7.10;99.90;;;;;;5132922;27;19923;-78
2022/03/29 05:15:43;;;;;;;;;;;7.10;99.90;;;;;;5114846;27;19919;-77
2022/03/29 05:18:09;;;;;;;;;;;7.10;99.90;;;;;;5133165;27;19930;-77
2022/03/29 05:20:34;;;;;;;;;;;7.10;99.90;;;;;;5114523;27;19923;-78
2022/03/29 05:23:06;;;;;;;;;;;7.10;99.90;;;;;;5132047;27;19919;-77
2022/03/29 05:25:32;;;;;;;;;;;7.10;99.90;;;;;;5114524;27;19919;-77
2022/03/29 05:27:58;;;;;;;;;;;7.10;99.90;;;;;;5132799;27;19923;-78
2022/03/29 05:30:23;;;;;;;;;;;7.10;99.90;;;;;;5097134;27;20308;-77
2022/03/29 05:32:51;;;;;;;;;;;7.10;99.90;;;;;;5114587;27;19919;-77
2022/03/29 05:35:17;;;;;;;;;;;7.10;99.90;;;;;;5132326;27;19930;-77
2022/03/29 05:37:42;;;;;;;;;;;7.10;99.90;;;;;;5114587;27;20026;-77
2022/03/29 05:40:09;;;;;;;;;;;7.10;99.90;;;;;;5113833;27;19989;-77
2022/03/29 05:42:41;;;;;;;;;;;7.10;99.90;;;;;;5113689;27;19926;-77
2022/03/29 05:45:08;;;;;;;;;;;7.10;99.90;;;;;;5113715;27;20006;-77
2022/03/29 05:50:17;;;;;;;;;;;7.10;99.90;;;;;;5113980;27;20009;-77
2022/03/29 05:52:43;;;;;;;;;;;7.20;99.90;;;;;;5096652;27;20014;-77
2022/03/29 05:55:08;;;;;;;;;;;7.20;99.90;;;;;;5114330;27;19928;-77
2022/03/29 05:57:34;;;;;;;;;;;7.20;99.90;;;;;;5114002;27;19931;-77
2022/03/29 05:59:59;;;;;;;;;;;7.20;99.90;;;;;;5109662;27;19926;-77
2022/03/29 06:02:25;;;;;;;;;;;7.30;99.90;;;;;;5117464;27;20297;-77
2022/03/29 06:04:50;;;;;;;;;;;7.20;99.90;;;;;;5108240;27;19923;-77
2022/03/29 06:07:16;;;;;;;;;;;7.20;99.90;;;;;;5103341;28;19973;-77
2022/03/29 06:09:42;;;;;;;;;;;7.30;99.90;;;;;;5103194;28;19927;-76
2022/03/29 06:12:07;;;;;;;;;;;7.30;99.90;;;;;;5122043;27;19926;-76
2022/03/29 06:14:33;;;;;;;;;;;7.30;99.90;;;;;;5114227;27;19919;-76
2022/03/29 06:17:00;;;;;;;;;;;7.30;99.90;;;;;;5095263;27;19920;-76
2022/03/29 06:19:26;;;;;;;;;;;7.30;99.90;;;;;;5103666;28;19919;-76
2022/03/29 06:21:51;;;;;;;;;;;7.30;99.90;;;;;;5113254;27;19964;-77
2022/03/29 06:24:17;;;;;;;;;;;7.40;99.90;;;;;;5106658;28;19998;-77
2022/03/29 06:26:43;;;;;;;;;;;7.40;99.90;;;;;;5095380;28;19997;-77
2022/03/29 06:29:09;;;;;;;;;;;7.40;99.90;;;;;;5087020;28;19920;-77
2022/03/29 06:31:35;;;;;;;;;;;7.40;99.90;;;;;;5093411;28;19927;-77
2022/03/29 06:34:01;;;;;;;;;;;7.40;99.90;;;;;;5094796;28;19920;-77
2022/03/29 06:36:26;;;;;;;;;;;7.40;99.90;;;;;;5077316;27;19923;-77
2022/03/29 06:38:52;;;;;;;;;;;7.40;99.90;;;;;;5101408;28;20378;-77
2022/03/29 06:41:19;;;;;;;;;;;7.50;99.90;;;;;;5094397;27;19935;-77
2022/03/29 06:43:44;;;;;;;;;;;7.40;99.90;;;;;;5104273;27;19931;-77
2022/03/29 06:46:10;;;;;;;;;;;7.40;99.90;;;;;;5109040;28;19924;-76
2022/03/29 06:48:36;;;;;;;;;;;7.50;99.90;;;;;;5108436;27;19942;-77
2022/03/29 06:51:02;;;;;;;;;;;7.50;99.90;;;;;;5110996;28;19920;-76
2022/03/29 06:53:28;;;;;;;;;;;7.50;99.90;;;;;;5109700;28;19919;-76
2022/03/29 06:55:53;;;;;;;;;;;7.50;99.90;;;;;;5096843;28;20484;-77
2022/03/29 06:58:19;;;;;;;;;;;7.50;99.90;;;;;;5118755;27;19923;-77
2022/03/29 07:00:45;;;;;;;;;;;7.60;99.90;;;;;;5128429;27;19919;-77
2022/03/29 07:03:10;;;;;;;;;;;7.60;99.90;;;;;;5111423;27;19971;-76
2022/03/29 07:05:38;;;;;;;;;;;7.60;99.90;;;;;;5126724;27;20022;-77
2022/03/29 07:08:10;;;;;;;;;;;7.60;99.90;;;;;;5108953;28;19919;-76
2022/03/29 07:13:21;;;;;;;;;;;7.60;99.90;;;;;;5109845;28;19924;-77
2022/03/29 07:15:48;;;;;;;;;;;7.70;99.90;;;;;;5111380;27;20325;-77
2022/03/29 07:18:13;;;;;;;;;;;7.70;99.90;;;;;;5075746;28;19957;-76
2022/03/29 07:20:39;;;;;;;;;;;7.70;99.90;;;;;;5077688;28;19990;-76
2022/03/29 07:23:04;;;;;;;;;;;7.80;99.90;;;;;;5091951;28;19976;-77
2022/03/29 07:25:32;;;;;;;;;;;7.80;99.90;;;;;;5095247;27;19963;-77
2022/03/29 07:27:58;;;;;;;;;;;7.80;99.90;;;;;;5092365;28;19934;-77
2022/03/29 07:30:24;;;;;;;;;;;7.90;99.90;;;;;;5112686;27;19928;-77
2022/03/29 07:32:50;;;;;;;;;;;7.90;99.90;;;;;;5112719;27;19923;-77
2022/03/29 07:35:17;;;;;;;;;;;7.90;99.90;;;;;;5129146;27;19923;-77
2022/03/29 07:37:42;;;;;;;;;;;7.90;99.90;;;;;;5112957;27;20053;-75
2022/03/29 07:40:09;;;;;;;;;;;8.00;99.90;;;;;;5130925;27;20030;-75
2022/03/29 07:42:36;;;;;;;;;;;8.10;99.90;;;;;;5099053;27;19919;-76
2022/03/29 07:45:03;;;;;;;;;;;8.10;99.90;;;;;;5112624;27;19919;-76
2022/03/29 07:47:29;;;;;;;;;;;8.20;99.90;;;;;;5108361;28;19994;-76
2022/03/29 07:49:55;;;;;;;;;;;8.20;99.90;;;;;;5095890;27;20022;-76
2022/03/29 07:52:21;;;;;;;;;;;8.30;99.90;;;;;;5105945;28;20005;-75
2022/03/29 07:54:46;;;;;;;;;;;8.30;99.90;;;;;;5105170;28;19973;-76
2022/03/29 07:57:12;;;;;;;;;;;8.30;99.90;;;;;;5091721;28;19973;-75
2022/03/29 07:59:38;;;;;;;;;;;8.40;99.90;;;;;;5092084;28;20347;-75
2022/03/29 08:02:07;;;;;;;;;;;8.40;99.90;;;;;;5117648;27;19919;-76
2022/03/29 08:04:33;;;;;;;;;;;8.50;99.90;;;;;;5109495;28;19946;-77
2022/03/29 08:06:59;;;;;;;;;;;8.60;99.90;;;;;;5097704;28;19919;-77
2022/03/29 08:09:25;;;;;;;;;;;8.70;99.90;;;;;;5091517;28;19919;-78
2022/03/29 08:11:51;;;;;;;;;;;8.70;99.90;;;;;;5100853;27;19923;-77
2022/03/29 08:14:18;;;;;;;;;;;8.80;99.90;;;;;;5111496;27;19925;-77
2022/03/29 08:16:43;;;;;;;;;;;8.80;99.90;;;;;;5119891;27;20010;-77
2022/03/29 08:19:09;;;;;;;;;;;8.80;99.90;;;;;;5124100;27;20021;-77
2022/03/29 08:21:50;;;;;;;;;;;8.80;99.90;;;;;;5125772;27;20293;-77
2022/03/29 08:24:20;;;;;;;;;;;8.80;99.90;;;;;;5111964;28;19968;-79
2022/03/29 08:26:46;;;;;;;;;;;8.80;99.90;;;;;;5111126;28;20289;-79
2022/03/29 08:29:12;;;;;;;;;;;8.70;99.90;;;;;;5115300;28;20385;-80
2022/03/29 08:31:38;;;;;;;;;;;8.70;99.90;;;;;;5095618;28;19941;-79
2022/03/29 08:34:06;;;;;;;;;;;8.70;99.90;;;;;;5109750;28;19919;-76
2022/03/29 08:36:31;;;;;;;;;;;8.70;99.90;;;;;;5107184;28;19923;-77
2022/03/29 08:38:57;;;;;;;;;;;8.60;99.90;;;;;;5110235;28;19919;-77
2022/03/29 08:41:24;;;;;;;;;;;8.60;99.90;;;;;;5120014;28;19920;-77
2022/03/29 08:43:50;;;;;;;;;;;8.60;99.90;;;;;;5112088;28;19926;-77
2022/03/29 08:46:15;;;;;;;;;;;8.60;99.90;;;;;;5101153;28;20390;-77
2022/03/29 08:48:41;;;;;;;;;;;8.60;99.90;;;;;;5111799;28;20425;-77
2022/03/29 08:51:07;;;;;;;;;;;8.60;99.90;;;;;;5128581;28;20006;-77
2022/03/29 08:53:33;;;;;;;;;;;8.60;99.90;;;;;;5093157;28;20305;-77
2022/03/29 08:55:58;;;;;;;;;;;8.60;99.90;;;;;;5091285;28;20044;-77
2022/03/29 08:58:24;;;;;;;;;;;8.70;99.90;;;;;;5109045;28;20365;-77
2022/03/29 09:00:50;;;;;;;;;;;8.70;99.90;;;;;;5123353;28;19930;-77
2022/03/29 09:03:16;;;;;;;;;;;8.70;99.90;;;;;;5108200;28;19920;-77
2022/03/29 09:05:42;;;;;;;;;;;8.80;99.90;;;;;;5091130;28;19926;-77
2022/03/29 09:08:12;;;;;;;;;;;8.80;99.90;;;;;;5093516;28;19920;-77
2022/03/29 09:10:39;;;;;;;;;;;8.90;99.90;;;;;;5091473;28;20315;-77
2022/03/29 09:13:15;;;;;;;;;;;8.90;99.90;;;;;;5115083;28;19919;-77
2022/03/29 09:15:41;;;;;;;;;;;8.90;99.90;;;;;;5095769;27;19919;-77
2022/03/29 09:18:07;;;;;;;;;;;8.90;99.90;;;;;;5100077;28;20331;-77
2022/03/29 09:20:32;;;;;;;;;;;8.90;99.90;;;;;;5094968;28;20282;-77
2022/03/29 09:22:58;;;;;;;;;;;9.00;99.90;;;;;;5121919;27;19927;-77
2022/03/29 09:25:47;;;;;;;;;;;9.00;99.90;;;;;;5114489;27;19930;-77
2022/03/29 09:28:17;;;;;;;;;;;9.00;99.90;;;;;;5111743;27;19930;-77
2022/03/29 09:30:53;;;;;;;;;;;9.00;99.90;;;;;;5093611;28;20440;-77
2022/03/29 09:33:19;;;;;;;;;;;9.10;99.90;;;;;;5126003;27;19926;-77
2022/03/29 09:35:58;;;;;;;;;;;9.00;99.90;;;;;;5114996;27;19923;-77
2022/03/29 09:38:29;;;;;;;;;;;9.00;99.90;;;;;;5123086;27;20582;-76
2022/03/29 09:40:56;;;;;;;;;;;9.10;99.90;;;;;;5094208;28;19926;-77
2022/03/29 09:43:24;;;;;;;;;;;9.10;99.90;;;;;;5103669;27;20016;-77
2022/03/29 09:45:50;;;;;;;;;;;9.10;99.90;;;;;;5102321;27;20389;-77
2022/03/29 09:48:23;;;;;;;;;;;9.10;99.90;;;;;;5104404;28;19920;-77
2022/03/29 09:50:52;;;;;;;;;;;9.10;99.90;;;;;;5093996;28;19930;-78
2022/03/29 09:53:33;;;;;;;;;;;9.10;99.90;;;;;;5112262;27;19919;-77
2022/03/29 09:56:02;;;;;;;;;;;9.20;99.90;;;;;;5094253;28;20016;-77
2022/03/29 09:58:28;;;;;;;;;;;9.10;99.90;;;;;;5110530;27;19924;-77
2022/03/29 10:00:53;;;;;;;;;;;9.10;99.90;;;;;;5113686;27;19932;-77
2022/03/29 10:03:19;;;;;;;;;;;9.10;99.90;;;;;;5113428;27;20666;-77
2022/03/29 10:05:46;;;;;;;;;;;9.00;99.90;;;;;;5116853;27;19927;-77
2022/03/29 10:11:01;;;;;;;;;;;8.90;99.90;;;;;;5093865;28;20003;-77
2022/03/29 10:13:28;;;;;;;;;;;8.90;99.90;;;;;;5093844;28;19931;-77
2022/03/29 10:15:55;;;;;;;;;;;8.80;99.90;;;;;;5105086;27;19923;-77
2022/03/29 10:18:24;;;;;;;;;;;8.90;99.90;;;;;;5109978;27;20014;-77
2022/03/29 10:20:49;;;;;;;;;;;8.90;99.90;;;;;;5094699;27;19931;-78
2022/03/29 10:23:18;;;;;;;;;;;9.00;99.90;;;;;;5105646;28;19924;-78
2022/03/29 10:25:43;;;;;;;;;;;9.00;99.90;;;;;;5093615;28;19924;-78
2022/03/29 10:28:09;;;;;;;;;;;9.10;99.90;;;;;;5092422;28;19920;-78
2022/03/29 10:30:39;;;;;;;;;;;9.20;99.90;;;;;;5112709;27;20000;-78
2022/03/29 10:33:34;;;;;;;;;;;9.30;99.90;;;;;;5104569;28;20056;-78
2022/03/29 10:36:06;;;;;;;;;;;9.40;99.90;;;;;;5085343;27;20158;-80
2022/03/29 10:38:47;;;;;;;;;;;9.40;99.90;;;;;;5101304;27;19923;-79
2022/03/29 10:41:28;;;;;;;;;;;9.40;99.90;;;;;;5113581;27;19927;-78
2022/03/29 10:43:54;;;;;;;;;;;9.40;99.90;;;;;;5125974;27;19927;-78
2022/03/29 10:46:26;;;;;;;;;;;9.40;99.90;;;;;;5096449;27;19934;-78
2022/03/29 10:49:10;;;;;;;;;;;9.40;99.90;;;;;;5112412;27;19923;-78
2022/03/29 10:51:36;;;;;;;;;;;9.50;99.90;;;;;;5092278;28;19928;-78
2022/03/29 10:54:26;;;;;;;;;;;9.60;99.90;;;;;;5102605;27;20425;-78
2022/03/29 10:57:03;;;;;;;;;;;9.60;99.90;;;;;;5064766;28;19962;-78
2022/03/29 10:59:35;;;;;;;;;;;9.70;99.90;;;;;;5112035;27;19954;-78
2022/03/29 11:02:12;;;;;;;;;;;9.70;99.90;;;;;;5107617;27;20355;-78
2022/03/29 11:04:56;;;;;;;;;;;9.70;99.90;;;;;;5109563;27;19967;-78
2022/03/29 11:07:22;;;;;;;;;;;9.80;99.90;;;;;;5097214;28;20357;-78
2022/03/29 11:09:48;;;;;;;;;;;9.80;99.90;;;;;;5110189;28;19923;-78
2022/03/29 11:12:33;;;;;;;;;;;9.70;99.90;;;;;;5099214;27;20009;-78
2022/03/29 11:14:59;;;;;;;;;;;9.70;99.90;;;;;;5094709;28;20356;-78
2022/03/29 11:17:28;;;;;;;;;;;9.70;99.90;;;;;;5109867;28;20002;-78
2022/03/29 11:19:55;;;;;;;;;;;9.80;99.90;;;;;;5109313;27;20397;-78
2022/03/29 11:22:31;;;;;;;;;;;9.90;99.90;;;;;;5113254;27;20401;-78
2022/03/29 11:25:02;;;;;;;;;;;9.90;99.90;;;;;;5108621;27;20349;-78
2022/03/29 11:27:32;;;;;;;;;;;9.90;99.90;;;;;;5108545;28;20012;-78
2022/03/29 11:29:58;;;;;;;;;;;9.90;99.90;;;;;;5092128;28;20299;-78
2022/03/29 11:32:24;;;;;;;;;;;10.00;99.90;;;;;;5092397;28;19924;-78
2022/03/29 11:34:55;;;;;;;;;;;10.00;99.90;;;;;;5095591;27;19998;-78
2022/03/29 11:37:27;;;;;;;;;;;10.00;99.90;;;;;;5124311;27;19927;-78
2022/03/29 11:39:53;;;;;;;;;;;10.00;99.90;;;;;;5110912;27;20026;-79
2022/03/29 11:42:19;;;;;;;;;;;10.10;99.90;;;;;;5111791;27;20057;-78
2022/03/29 11:44:48;;;;;;;;;;;10.20;99.90;;;;;;5110336;27;20014;-78
2022/03/29 11:47:13;;;;;;;;;;;10.20;99.90;;;;;;5093146;28;20010;-78
2022/03/29 11:49:40;;;;;;;;;;;10.20;99.90;;;;;;5110095;28;20016;-78
2022/03/29 11:52:13;;;;;;;;;;;10.30;99.90;;;;;;5093395;28;19973;-78
2022/03/29 11:54:51;;;;;;;;;;;10.40;99.90;;;;;;5101201;27;19923;-78
2022/03/29 11:57:17;;;;;;;;;;;10.40;99.90;;;;;;5110434;27;20006;-78
2022/03/29 11:59:42;;;;;;;;;;;10.40;99.90;;;;;;5110527;28;20549;-78
2022/03/29 12:02:08;;;;;;;;;;;10.40;99.90;;;;;;5111178;28;19923;-78
2022/03/29 12:04:36;;;;;;;;;;;10.50;99.90;;;;;;5091751;28;20053;-78
2022/03/29 12:07:02;;;;;;;;;;;10.50;99.90;;;;;;5109916;28;19930;-78
2022/03/29 12:09:27;;;;;;;;;;;10.40;99.90;;;;;;5092326;28;20347;-78
2022/03/29 12:11:54;;;;;;;;;;;10.40;99.90;;;;;;5096745;28;19928;-78
2022/03/29 12:14:21;;;;;;;;;;;10.40;99.90;;;;;;5124135;27;19961;-78
2022/03/29 12:16:48;;;;;;;;;;;10.40;99.90;;;;;;5112688;27;19971;-79
2022/03/29 12:19:15;;;;;;;;;;;10.30;99.90;;;;;;5110771;28;19969;-78
2022/03/29 12:21:44;;;;;;;;;;;10.20;99.90;;;;;;5125917;27;19930;-78
2022/03/29 12:24:11;;;;;;;;;;;10.20;99.90;;;;;;5122782;27;19947;-78
2022/03/29 12:26:44;;;;;;;;;;;10.10;99.90;;;;;;5091652;28;19935;-78
2022/03/29 12:29:14;;;;;;;;;;;10.20;99.90;;;;;;5119645;28;19945;-78
2022/03/29 12:31:40;;;;;;;;;;;10.20;99.90;;;;;;5129110;28;20377;-78
2022/03/29 12:34:06;;;;;;;;;;;10.20;99.90;;;;;;5123524;28;19930;-78
2022/03/29 12:36:32;;;;;;;;;;;10.30;99.90;;;;;;5091743;28;19924;-78
2022/03/29 12:39:03;;;;;;;;;;;10.50;99.90;;;;;;5111346;28;19930;-78
2022/03/29 12:41:35;;;;;;;;;;;10.60;99.90;;;;;;5109752;28;19928;-78
2022/03/29 12:44:01;;;;;;;;;;;10.70;99.90;;;;;;5109123;28;20034;-78
2022/03/29 12:46:28;;;;;;;;;;;10.60;99.90;;;;;;5109722;28;20047;-78
2022/03/29 12:48:55;;;;;;;;;;;10.50;99.90;;;;;;5093261;28;20290;-78
2022/03/29 12:51:27;;;;;;;;;;;10.50;99.90;;;;;;5132708;27;19934;-78
2022/03/29 12:53:54;;;;;;;;;;;10.50;99.90;;;;;;5132483;27;19953;-78
2022/03/29 12:56:30;;;;;;;;;;;10.50;99.90;;;;;;5106381;27;20471;-78
2022/03/29 12:58:55;;;;;;;;;;;10.60;99.90;;;;;;5130403;27;19923;-79
2022/03/29 13:01:29;;;;;;;;;;;10.60;99.90;;;;;;5115285;27;19935;-78
2022/03/29 13:04:04;;;;;;;;;;;10.40;99.90;;;;;;5115870;27;19927;-78
2022/03/29 13:06:40;;;;;;;;;;;10.30;99.90;;;;;;5113609;28;19924;-78
2022/03/29 13:09:05;;;;;;;;;;;10.30;99.90;;;;;;5114401;27;20408;-78
2022/03/29 13:11:31;;;;;;;;;;;10.30;99.90;;;;;;5095308;28;19924;-78
2022/03/29 13:14:06;;;;;;;;;;;10.20;99.90;;;;;;5114153;27;19967;-77
2022/03/29 13:16:32;;;;;;;;;;;10.20;99.90;;;;;;5109362;27;20006;-77
2022/03/29 13:18:58;;;;;;;;;;;10.10;99.90;;;;;;5115918;27;20006;-77
2022/03/29 13:21:23;;;;;;;;;;;10.20;99.90;;;;;;5115239;27;19923;-77
2022/03/29 13:23:51;;;;;;;;;;;10.20;99.90;;;;;;5110018;27;19969;-77
2022/03/29 13:26:17;;;;;;;;;;;10.30;99.90;;;;;;5105396;28;19995;-77
2022/03/29 13:28:43;;;;;;;;;;;10.30;99.90;;;;;;5119466;27;19927;-77
2022/03/29 13:31:10;;;;;;;;;;;10.40;99.90;;;;;;5094130;28;19973;-77
2022/03/29 13:33:36;;;;;;;;;;;10.40;99.90;;;;;;5077643;27;19931;-77
2022/03/29 13:36:09;;;;;;;;;;;10.50;99.90;;;;;;5112482;27;19932;-77
2022/03/29 13:38:35;;;;;;;;;;;10.50;99.90;;;;;;5113675;27;20006;-77
2022/03/29 13:41:00;;;;;;;;;;;10.80;99.90;;;;;;5094324;28;20351;-78
2022/03/29 13:43:26;;;;;;;;;;;11.00;99.90;;;;;;5111281;28;19931;-77
2022/03/29 13:45:54;;;;;;;;;;;11.20;99.90;;;;;;5113650;27;20006;-77
2022/03/29 13:48:20;;;;;;;;;;;11.20;99.90;;;;;;5094408;28;19953;-77
2022/03/29 13:50:45;;;;;;;;;;;11.10;99.90;;;;;;5079406;28;19924;-77
2022/03/29 13:53:11;;;;;;;;;;;11.60;99.90;;;;;;5096101;27;19935;-77
2022/03/29 13:55:37;;;;;;;;;;;12.00;99.90;;;;;;5099824;27;19923;-77
2022/03/29 13:58:05;;;;;;;;;;;12.80;99.90;;;;;;5114781;27;19931;-77
2022/03/29 14:00:35;;;;;;;;;;;13.70;99.90;;;;;;5095077;27;20006;-78
2022/03/29 14:03:01;;;;;;;;;;;14.00;99.90;;;;;;5114551;27;19923;-77
2022/03/29 14:05:27;;;;;;;;;;;14.40;99.90;;;;;;5125811;27;19923;-77
2022/03/29 14:07:53;;;;;;;;;;;14.60;99.40;;;;;;5131103;27;19949;-77
2022/03/29 14:10:19;;;;;;;;;;;14.70;98.90;;;;;;5112217;28;19982;-77
2022/03/29 14:12:44;;;;;;;;;;;14.40;97.80;;;;;;5124486;27;19975;-77
2022/03/29 14:15:10;;;;;;;;;;;13.90;98.10;;;;;;5092240;27;19924;-77
2022/03/29 14:17:35;;;;;;;;;;;13.30;98.50;;;;;;5112139;28;19923;-77
2022/03/29 14:20:01;;;;;;;;;;;13.00;99.20;;;;;;5093753;28;19969;-77
2022/03/29 14:22:26;;;;;;;;;;;12.70;99.40;;;;;;5114435;27;20014;-77
2022/03/29 14:24:52;;;;;;;;;;;12.60;99.90;;;;;;5094757;28;19974;-77
2022/03/29 14:27:17;;;;;;;;;;;12.80;99.90;;;;;;5110566;27;19931;-77
2022/03/29 14:29:43;;;;;;;;;;;12.90;99.70;;;;;;5118245;27;19931;-77
2022/03/29 14:32:10;;;;;;;;;;;13.00;99.50;;;;;;5110754;27;19935;-77
2022/03/29 14:34:36;;;;;;;;;;;13.00;99.30;;;;;;5095861;28;19936;-77
2022/03/29 14:37:03;;;;;;;;;;;13.10;98.70;;;;;;5109648;27;20413;-78